createdAt,value
2019-03-22T15:02:38.666Z,20.80
2019-03-22T15:05:09.206Z,22.62
2019-03-22T15:07:40.044Z,18.80
2019-03-22T15:10:10.838Z,19.90
2019-03-22T15:12:41.001Z,22.90
2019-03-22T15:15:29.962Z,23.57
2019-03-22T15:18:19.123Z,21.57
2019-03-22T15:21:10.859Z,24.43
2019-03-22T15:24:03.441Z,22.67
2019-03-22T15:26:49.188Z,19.70
2019-03-22T15:29:37.138Z,22.50
2019-03-22T15:32:42.046Z,22.77
2019-03-22T15:35:32.038Z,24.00
2019-03-22T15:38:39.988Z,23.07
2019-03-22T15:41:10.298Z,23.30
2019-03-22T15:43:41.297Z,20.82
2019-03-22T15:46:11.530Z,25.50
2019-03-22T15:48:43.013Z,21.57
2019-03-22T15:51:13.616Z,20.70
2019-03-22T15:53:43.851Z,22.93
2019-03-22T15:56:15.126Z,21.27
2019-03-22T15:58:46.100Z,22.20
2019-03-22T16:01:16.795Z,23.42
2019-03-22T16:03:47.336Z,23.07
2019-03-22T16:06:18.217Z,24.47
2019-03-22T16:08:49.137Z,22.45
2019-03-22T16:11:20.511Z,22.85
2019-03-22T16:13:51.148Z,25.50
2019-03-22T16:16:21.440Z,25.90
2019-03-22T16:18:51.686Z,25.30
2019-03-22T16:21:22.835Z,26.42
2019-03-22T16:23:56.537Z,24.60
2019-03-22T16:26:27.864Z,25.20
2019-03-22T16:28:58.571Z,28.02
2019-03-22T16:31:29.198Z,32.60
2019-03-22T16:33:59.341Z,25.90
2019-03-22T16:36:29.981Z,26.87
2019-03-22T16:39:01.070Z,30.95
2019-03-22T16:41:31.673Z,25.95
2019-03-22T16:44:02.548Z,25.95
2019-03-22T16:46:33.258Z,25.65
2019-03-22T16:49:03.888Z,25.60
2019-03-22T16:51:34.074Z,26.70
2019-03-22T16:54:05.393Z,28.50
2019-03-22T16:56:36.039Z,28.67
2019-03-22T16:59:07.036Z,29.52
2019-03-22T17:01:38.174Z,30.88
2019-03-22T17:04:09.102Z,32.30
2019-03-22T17:06:38.963Z,29.52
2019-03-22T17:09:09.789Z,31.87
2019-03-22T17:11:41.378Z,27.65
2019-03-22T17:14:12.039Z,28.12
2019-03-22T17:16:42.974Z,27.77
2019-03-22T17:19:13.591Z,28.47
2019-03-22T17:21:44.379Z,29.82
2019-03-22T17:24:15.355Z,31.35
2019-03-22T17:26:46.097Z,32.67
2019-03-22T17:29:16.595Z,31.40
2019-03-22T17:31:47.627Z,33.38
2019-03-22T17:34:18.284Z,32.65
2019-03-22T17:36:48.939Z,32.78
2019-03-22T17:39:20.189Z,31.07
2019-03-22T17:41:51.089Z,30.80
2019-03-22T17:44:21.348Z,32.28
2019-03-22T17:46:52.665Z,33.92
2019-03-22T17:49:23.615Z,29.98
2019-03-22T17:51:55.113Z,33.70
2019-03-22T17:54:25.944Z,36.10
2019-03-22T17:56:56.603Z,37.33
2019-03-22T17:59:27.588Z,38.28
2019-03-22T18:01:58.246Z,31.82
2019-03-22T18:04:28.961Z,50.35
2019-03-22T18:06:59.882Z,34.18
2019-03-22T18:09:30.431Z,34.33
2019-03-22T18:12:01.065Z,37.08
2019-03-22T18:14:32.029Z,36.95
2019-03-22T18:17:02.928Z,32.50
2019-03-22T18:19:33.475Z,33.15
2019-03-22T18:22:04.103Z,36.42
2019-03-22T18:24:35.312Z,33.90
2019-03-22T18:27:06.348Z,36.20
2019-03-22T18:29:37.612Z,33.80
2019-03-22T18:32:08.247Z,32.80
2019-03-22T18:34:39.470Z,36.70
2019-03-22T18:37:10.025Z,36.08
2019-03-22T18:39:41.284Z,35.23
2019-03-22T18:42:11.914Z,34.18
2019-03-22T18:44:43.195Z,36.90
2019-03-22T18:47:14.491Z,39.48
2019-03-22T18:49:45.748Z,32.75
2019-03-22T18:52:16.470Z,35.17
2019-03-22T18:54:47.830Z,32.93
2019-03-22T18:57:19.233Z,35.13
2019-03-22T18:59:50.199Z,36.63
2019-03-22T19:02:20.891Z,37.95
2019-03-22T19:04:51.854Z,35.58
2019-03-22T19:07:22.524Z,31.65
2019-03-22T19:09:53.584Z,34.30
2019-03-22T19:12:24.221Z,34.00
2019-03-22T19:14:54.725Z,36.68
2019-03-22T19:17:25.908Z,35.43
2019-03-22T19:19:56.880Z,32.63
2019-03-22T19:22:27.568Z,34.05
2019-03-22T19:24:58.780Z,33.18
2019-03-22T19:27:29.300Z,31.57
2019-03-22T19:29:59.847Z,36.88
2019-03-22T19:32:31.717Z,33.25
2019-03-22T19:35:03.015Z,33.18
2019-03-22T19:37:34.079Z,34.03
2019-03-22T19:40:05.748Z,32.78
2019-03-22T19:42:35.994Z,34.83
2019-03-22T19:45:07.822Z,34.60
2019-03-22T19:47:38.463Z,32.05
2019-03-22T19:50:09.421Z,36.08
2019-03-22T19:52:40.662Z,33.70
2019-03-22T19:55:12.878Z,35.78
2019-03-22T19:57:43.551Z,32.80
2019-03-22T20:00:14.667Z,34.60
2019-03-22T20:02:46.179Z,33.55
2019-03-22T20:05:27.736Z,35.60
2019-03-22T20:07:58.354Z,37.25
2019-03-22T20:10:28.617Z,39.30
2019-03-22T20:12:59.935Z,38.75
2019-03-22T20:15:31.036Z,35.33
2019-03-22T20:18:01.350Z,32.28
2019-03-22T20:20:32.655Z,36.23
2019-03-22T20:23:03.784Z,34.25
2019-03-22T20:25:34.837Z,37.60
2019-03-22T20:28:06.107Z,34.43
2019-03-22T20:30:36.836Z,38.15
2019-03-22T20:33:07.800Z,35.73
2019-03-22T20:35:38.826Z,37.33
2019-03-22T20:38:10.344Z,33.55
2019-03-22T20:40:41.094Z,43.42
2019-03-22T20:43:12.105Z,39.23
2019-03-22T20:45:43.409Z,37.42
2019-03-22T20:48:15.074Z,38.90
2019-03-22T20:50:46.051Z,35.95
2019-03-22T20:53:16.278Z,36.55
2019-03-22T20:55:46.821Z,39.60
2019-03-22T20:58:17.831Z,39.18
